Time;durP1;ratioP1;P1;durP2;ratioP2;P2;SDS_P1;SDS_P2;PMS_P1;PMS_P2;Temp;Humidity;BMP_temperature;BMP_pressure;BME280_temperature;BME280_humidity;BME280_pressure;Samples;Min_cycle;Max_cycle;Signal;HPM_P1;HPM_P2
2022/10/05 00:03:12;;;;;;;1.25;0.63;;;;;;;17.27;100.00;101253.19;20916383;27;20459;-74
2022/10/05 00:13:18;;;;;;;0.93;0.80;;;;;;;17.65;100.00;101305.72;20926091;27;20072;-74
2022/10/05 00:23:23;;;;;;;1.20;1.10;;;;;;;17.50;100.00;101273.69;20884318;27;20493;-74
2022/10/05 00:33:27;;;;;;;1.65;1.10;;;;;;;17.34;100.00;101254.38;20879994;27;20052;-74
2022/10/05 00:43:29;;;;;;;2.43;1.10;;;;;;;17.64;100.00;101294.09;20889221;27;20076;-74
2022/10/05 00:53:38;;;;;;;1.08;0.80;;;;;;;17.64;100.00;101290.53;20859706;27;20042;-74
2022/10/05 01:03:58;;;;;;;0.80;0.80;;;;;;;17.64;100.00;101269.00;20996800;27;20074;-74
2022/10/05 01:14:08;;;;;;;1.08;1.00;;;;;;;17.63;100.00;101248.44;20892689;27;20057;-74
2022/10/05 01:24:33;;;;;;;0.70;0.70;;;;;;;17.54;100.00;101234.78;20851763;27;20056;-74
2022/10/05 01:35:00;;;;;;;1.02;0.90;;;;;;;17.62;100.00;101226.06;20750642;27;21030;-74
2022/10/05 01:45:11;;;;;;;1.05;0.90;;;;;;;17.62;100.00;101215.31;20885508;27;20429;-74
2022/10/05 01:56:02;;;;;;;1.20;0.90;;;;;;;17.62;100.00;101209.91;20893278;27;20505;-74
2022/10/05 02:06:09;;;;;;;0.85;0.85;;;;;;;17.36;100.00;101169.00;20878560;27;20042;-74
2022/10/05 02:16:35;;;;;;;1.08;0.80;;;;;;;17.61;100.00;101175.91;20847452;27;20044;-74
2022/10/05 02:26:37;;;;;;;0.70;0.70;;;;;;;17.61;100.00;101151.66;20835403;27;20049;-75
2022/10/05 02:36:39;;;;;;;0.73;0.73;;;;;;;17.61;100.00;101151.66;20825737;27;20041;-75
2022/10/05 02:47:04;;;;;;;1.25;1.15;;;;;;;17.60;100.00;101168.81;20957245;27;20533;-78
2022/10/05 02:57:26;;;;;;;0.93;0.85;;;;;;;17.46;100.00;101132.25;20854606;27;20464;-74
2022/10/05 03:07:46;;;;;;;0.95;0.90;;;;;;;17.61;100.00;101159.75;20877235;27;20044;-74
2022/10/05 03:18:31;;;;;;;0.77;0.77;;;;;;;17.60;100.00;101152.66;20837387;27;20049;-74
2022/10/05 03:28:54;;;;;;;1.25;0.70;;;;;;;17.61;100.00;101148.97;20853704;27;20080;-74
2022/10/05 03:39:09;;;;;;;1.13;0.80;;;;;;;17.60;100.00;101163.41;20883963;27;20058;-74
2022/10/05 03:49:19;;;;;;;1.20;1.00;;;;;;;17.60;100.00;101146.41;20894771;27;20056;-74
2022/10/05 03:59:25;;;;;;;1.08;0.90;;;;;;;17.61;100.00;101148.97;20920205;27;20709;-74
2022/10/05 04:09:36;;;;;;;0.80;0.80;;;;;;;17.60;100.00;101135.63;20886743;27;20048;-74
2022/10/05 04:19:43;;;;;;;0.82;0.82;;;;;;;17.60;100.00;101123.03;20962008;27;20052;-74
2022/10/05 04:30:04;;;;;;;0.80;0.80;;;;;;;17.49;100.00;101113.16;20904849;27;20408;-74
2022/10/05 04:40:33;;;;;;;0.70;0.70;;;;;;;17.60;100.00;101100.63;20884523;27;20053;-74
2022/10/05 04:50:56;;;;;;;0.82;0.82;;;;;;;17.59;100.00;101107.88;20834967;27;20064;-74
2022/10/05 05:01:28;;;;;;;0.82;0.82;;;;;;;17.57;100.00;101088.31;20776781;27;20049;-74
2022/10/05 05:11:45;;;;;;;0.70;0.70;;;;;;;17.56;100.00;101080.34;20713628;27;20417;-73
2022/10/05 05:22:02;;;;;;;0.80;0.80;;;;;;;17.56;100.00;101061.50;20853307;27;20601;-74
2022/10/05 05:32:31;;;;;;;0.82;0.82;;;;;;;17.58;100.00;101063.09;20754895;27;20106;-74
2022/10/05 05:43:00;;;;;;;0.95;0.95;;;;;;;17.59;100.00;101067.50;20800983;27;20057;-75
2022/10/05 05:53:31;;;;;;;0.88;0.80;;;;;;;17.58;100.00;101051.44;20769276;27;20407;-74
2022/10/05 06:03:43;;;;;;;1.00;0.90;;;;;;;17.58;100.00;101057.72;20742222;27;20073;-74
2022/10/05 06:13:47;;;;;;;0.73;0.73;;;;;;;17.58;100.00;101068.47;20733411;27;20050;-74
2022/10/05 06:23:57;;;;;;;1.33;0.82;;;;;;;17.57;100.00;101082.06;20723450;27;20517;-74
2022/10/05 06:34:16;;;;;;;1.25;0.95;;;;;;;17.58;100.00;101091.84;20703455;27;20098;-75
2022/10/05 06:44:28;;;;;;;0.70;0.70;;;;;;;17.58;100.00;101089.16;20877840;27;20127;-75
2022/10/05 06:54:53;;;;;;;0.90;0.90;;;;;;;17.57;100.00;101088.31;20850471;27;20046;-75
2022/10/05 07:05:37;;;;;;;0.80;0.80;;;;;;;17.58;100.00;101091.84;20833090;27;20052;-75
2022/10/05 07:16:01;;;;;;;1.00;0.90;;;;;;;17.58;100.00;101091.84;20715986;27;20126;-75
2022/10/05 07:26:33;;;;;;;0.70;0.70;;;;;;;17.21;100.00;101034.72;20734128;27;20049;-75
2022/10/05 07:47:14;;;;;;;5.68;1.98;;;;;;;17.62;100.00;101093.28;20707398;27;20106;-74
2022/10/05 07:57:40;;;;;;;4.72;2.30;;;;;;;17.69;100.00;101083.72;20716604;27;20042;-74
2022/10/05 08:07:42;;;;;;;5.00;2.03;;;;;;;17.53;100.00;101044.63;20703672;27;20050;-74
2022/10/05 08:17:50;;;;;;;3.55;2.00;;;;;;;17.80;100.00;101056.72;20697065;27;20050;-74
2022/10/05 08:27:59;;;;;;;4.50;2.22;;;;;;;17.85;100.00;101052.78;20711357;27;20053;-74
2022/10/05 08:38:07;;;;;;;10.20;3.17;;;;;;;17.90;100.00;101043.31;20712015;27;20061;-74
2022/10/05 08:48:24;;;;;;;13.90;4.07;;;;;;;17.95;100.00;101038.38;20701084;27;20126;-73
2022/10/05 08:59:04;;;;;;;16.23;3.30;;;;;;;17.81;100.00;101001.00;20713135;27;20049;-74
2022/10/05 09:09:17;;;;;;;7.80;2.65;;;;;;;17.95;100.00;101033.00;20711263;27;20437;-74
2022/10/05 09:19:35;;;;;;;10.32;2.92;;;;;;;17.79;100.00;101000.28;20711163;27;20046;-74
2022/10/05 09:30:10;;;;;;;7.43;2.53;;;;;;;17.93;100.00;101013.44;20721529;27;20096;-74
2022/10/05 09:40:36;;;;;;;4.73;2.50;;;;;;;17.89;100.00;100997.66;20712863;27;20413;-74
2022/10/05 09:50:39;;;;;;;4.65;2.30;;;;;;;17.93;100.00;100993.72;20697690;27;20049;-74
2022/10/05 10:01:04;;;;;;;3.95;2.28;;;;;;;17.92;100.00;101022.50;20714178;27;20061;-74
2022/10/05 10:11:29;;;;;;;4.97;2.10;;;;;;;17.91;100.00;100993.00;20717447;27;20052;-73
2022/10/05 10:21:32;;;;;;;3.83;2.10;;;;;;;17.92;100.00;100994.69;20703780;27;20466;-73
2022/10/05 10:31:52;;;;;;;5.15;2.00;;;;;;;17.92;100.00;100983.94;20713074;27;20054;-74
2022/10/05 10:42:03;;;;;;;6.70;1.90;;;;;;;17.91;100.00;100979.53;20718525;27;20042;-74
2022/10/05 10:52:24;;;;;;;2.63;1.98;;;;;;;17.91;100.00;100966.94;20722949;27;20051;-74
2022/10/05 11:02:36;;;;;;;4.63;2.05;;;;;;;17.91;100.00;100966.06;20710194;27;20038;-73
2022/10/05 11:13:02;;;;;;;2.50;1.80;;;;;;;17.92;100.00;100962.38;20734647;28;20061;-74
2022/10/05 11:23:25;;;;;;;3.08;1.77;;;;;;;17.92;100.00;100957.84;20773885;27;20159;-74
2022/10/05 11:33:39;;;;;;;3.00;2.08;;;;;;;17.92;100.00;100963.25;20770469;27;20567;-74
2022/10/05 11:43:53;;;;;;;4.70;2.25;;;;;;;17.93;100.00;100947.91;20775847;27;20046;-74
2022/10/05 11:54:23;;;;;;;1.90;1.40;;;;;;;17.93;100.00;100932.63;20728682;27;20053;-74
2022/10/05 12:04:40;;;;;;;2.40;1.52;;;;;;;17.96;100.00;100932.34;20691259;27;20505;-74
2022/10/05 12:15:03;;;;;;;1.92;1.58;;;;;;;17.95;100.00;100911.78;20696653;27;20545;-74
2022/10/05 12:25:20;;;;;;;3.25;1.77;;;;;;;18.01;100.00;100923.88;20730898;27;20041;-73
2022/10/05 12:35:31;;;;;;;2.35;1.45;;;;;;;18.01;100.00;100926.56;20761803;27;20051;-74
2022/10/05 12:45:52;;;;;;;3.45;1.83;;;;;;;18.01;100.00;100923.88;20721527;27;20088;-74
2022/10/05 12:56:02;;;;;;;3.60;1.70;;;;;;;18.02;100.00;100903.19;20721773;27;20594;-74
2022/10/05 13:06:19;;;;;;;3.97;1.15;;;;;;;18.02;100.00;100898.66;20728746;27;20413;-73
2022/10/05 13:16:46;;;;;;;3.75;1.50;;;;;;;17.99;100.00;100917.75;20708961;27;20348;-73
2022/10/05 13:27:03;;;;;;;2.00;1.30;;;;;;;17.94;100.00;100860.75;20729211;27;20049;-74
2022/10/05 13:37:27;;;;;;;2.88;1.70;;;;;;;18.07;100.00;100865.91;20721430;27;20054;-73
2022/10/05 13:47:38;;;;;;;3.13;1.35;;;;;;;18.08;100.00;100860.38;20715285;27;20149;-73
2022/10/05 13:57:52;;;;;;;2.88;1.67;;;;;;;18.08;100.00;100864.94;20716493;27;20048;-74
2022/10/05 14:08:02;;;;;;;1.92;1.45;;;;;;;18.08;100.00;100854.97;20726955;27;20054;-74
2022/10/05 14:18:22;;;;;;;1.88;1.30;;;;;;;18.07;100.00;100855.97;20713343;27;20119;-75
2022/10/05 14:28:31;;;;;;;2.20;1.30;;;;;;;18.06;100.00;100848.88;20717310;27;20073;-75
2022/10/05 14:38:49;;;;;;;1.85;1.40;;;;;;;17.92;100.00;100828.56;20745399;27;20061;-75
2022/10/05 14:49:11;;;;;;;1.30;1.20;;;;;;;17.96;100.00;100816.53;20724192;27;20058;-75
2022/10/05 14:59:18;;;;;;;2.38;1.52;;;;;;;17.95;100.00;100822.03;20723361;27;20049;-76
2022/10/05 15:09:38;;;;;;;1.55;1.30;;;;;;;17.93;100.00;100834.78;20773073;27;20053;-75
2022/10/05 15:19:58;;;;;;;1.30;1.20;;;;;;;17.92;100.00;100831.28;20719607;27;20123;-75
2022/10/05 15:30:10;;;;;;;1.58;1.20;;;;;;;17.91;100.00;100847.56;20706146;27;20065;-76
2022/10/05 15:40:21;;;;;;;1.05;0.98;;;;;;;17.89;100.00;100844.97;20716585;27;20052;-75
2022/10/05 15:50:28;;;;;;;1.30;1.20;;;;;;;17.52;100.00;100795.28;20702710;27;20061;-75
2022/10/05 16:00:33;;;;;;;1.80;1.30;;;;;;;17.89;100.00;100860.31;20698637;27;20088;-74
2022/10/05 16:10:36;;;;;;;;;;;;;;;17.88;100.00;100888.22;20734475;27;20055;-75
2022/10/05 16:20:58;;;;;;;1.20;1.10;;;;;;;17.86;100.00;100876.75;20719067;27;19926;-75
2022/10/05 16:31:19;;;;;;;1.27;1.17;;;;;;;17.54;100.00;100840.91;20710706;27;20081;-75
2022/10/05 16:41:46;;;;;;;1.08;0.90;;;;;;;17.85;100.00;100872.34;20715067;27;20061;-75
2022/10/05 16:52:00;;;;;;;1.20;1.00;;;;;;;17.83;100.00;100884.09;20734644;27;20053;-75
2022/10/05 17:02:13;;;;;;;1.70;1.20;;;;;;;17.76;100.00;100869.50;20768779;27;20056;-74
2022/10/05 17:12:25;;;;;;;1.10;1.00;;;;;;;17.83;100.00;100894.00;20756689;27;20049;-75
2022/10/05 17:22:31;;;;;;;1.30;0.88;;;;;;;17.83;100.00;100894.00;20748910;27;20178;-75
2022/10/05 17:32:35;;;;;;;2.03;1.13;;;;;;;17.82;100.00;100903.06;20713657;27;20136;-75
2022/10/05 17:42:37;;;;;;;1.33;1.20;;;;;;;17.81;100.00;100906.75;20716945;27;20700;-75
2022/10/05 18:03:34;;;;;;;2.72;1.35;;;;;;;17.80;100.00;100922.09;20727104;27;20056;-75
2022/10/05 18:13:40;;;;;;;1.13;1.02;;;;;;;17.73;100.00;100922.75;20760521;27;20046;-75
2022/10/05 18:23:51;;;;;;;1.10;0.90;;;;;;;17.80;100.00;100927.47;20726708;27;20049;-74
2022/10/05 18:34:15;;;;;;;3.97;1.40;;;;;;;17.67;100.00;100907.97;20741824;27;20053;-75
2022/10/05 18:44:38;;;;;;;2.08;1.17;;;;;;;17.47;100.00;100880.13;20736610;27;20864;-74
2022/10/05 18:55:00;;;;;;;1.70;1.20;;;;;;;17.67;100.00;100902.59;20756546;27;20052;-76
2022/10/05 19:05:22;;;;;;;1.25;0.93;;;;;;;17.79;100.00;100935.66;20804942;27;20132;-75
2022/10/05 19:16:01;;;;;;;1.33;1.00;;;;;;;17.73;100.00;100931.69;20865371;27;20049;-75
2022/10/05 19:26:06;;;;;;;1.55;1.00;;;;;;;17.77;100.00;100965.44;20865411;27;20568;-75
2022/10/05 19:36:49;;;;;;;1.10;0.90;;;;;;;17.78;100.00;100975.22;20886453;27;20050;-75
2022/10/05 19:47:09;;;;;;;1.40;0.95;;;;;;;17.78;100.00;100980.59;21173418;27;20054;-74
2022/10/05 19:57:16;;;;;;;1.45;1.10;;;;;;;17.63;100.00;100968.47;21212011;27;20054;-75
2022/10/05 20:07:20;;;;;;;1.10;0.80;;;;;;;17.78;100.00;101026.38;21210263;27;20073;-75
2022/10/05 20:27:54;;;;;;;1.02;0.90;;;;;;;17.77;100.00;101113.53;21210805;27;20506;-76
2022/10/05 20:37:59;;;;;;;1.25;0.88;;;;;;;17.44;100.00;101063.38;21144769;27;20047;-75
2022/10/05 20:48:02;;;;;;;1.10;0.90;;;;;;;17.69;100.00;101151.88;21210467;27;20318;-75
2022/10/05 20:58:03;;;;;;;1.13;0.90;;;;;;;17.78;100.00;101165.53;21222919;27;20051;-75
2022/10/05 21:08:05;;;;;;;1.58;1.13;;;;;;;17.77;100.00;101202.41;21224188;27;20066;-75
2022/10/05 21:18:07;;;;;;;1.70;1.13;;;;;;;17.76;100.00;101203.38;21224228;27;20157;-75
2022/10/05 21:28:08;;;;;;;1.30;0.77;;;;;;;17.69;100.00;101221.88;21223247;27;20495;-75
2022/10/05 21:38:10;;;;;;;1.02;0.90;;;;;;;17.76;100.00;101243.78;21152975;27;20047;-75
2022/10/05 21:48:12;;;;;;;1.50;0.95;;;;;;;17.76;100.00;101259.94;21221552;27;20057;-75
2022/10/05 21:58:15;;;;;;;1.52;0.95;;;;;;;17.48;100.00;101219.13;21218964;27;20043;-75
2022/10/05 22:08:25;;;;;;;1.40;0.98;;;;;;;17.64;100.00;101274.38;21219665;27;20066;-75
2022/10/05 22:18:26;;;;;;;1.17;1.08;;;;;;;17.75;100.00;101317.47;21217944;27;20530;-75
2022/10/05 22:28:29;;;;;;;1.20;0.80;;;;;;;17.61;100.00;101315.03;21218647;27;20096;-75
2022/10/05 22:38:32;;;;;;;0.80;0.63;;;;;;;17.75;100.00;101355.19;21128124;27;20499;-75
2022/10/05 22:48:33;;;;;;;0.73;0.70;;;;;;;17.42;100.00;101327.28;21217376;27;20047;-75
2022/10/05 22:58:35;;;;;;;0.95;0.70;;;;;;;17.75;100.00;101395.56;21216215;27;20499;-75
2022/10/05 23:08:37;;;;;;;1.10;0.77;;;;;;;17.75;100.00;101414.41;21215333;27;20058;-75
2022/10/05 23:18:39;;;;;;;1.58;0.77;;;;;;;17.74;100.00;101428.88;21214074;27;20438;-75
2022/10/05 23:28:45;;;;;;;1.02;0.80;;;;;;;17.75;100.00;101453.94;21214353;27;20035;-74
2022/10/05 23:38:47;;;;;;;0.98;0.80;;;;;;;17.74;100.00;101466.56;21154298;27;20096;-75
2022/10/05 23:48:49;;;;;;;1.17;0.80;;;;;;;17.64;100.00;101470.94;21211169;27;20259;-75
2022/10/05 23:58:50;;;;;;;0.57;0.57;;;;;;;17.73;100.00;101501.69;21212500;27;20104;-75
